sensor_id;sensor_type;location;lat;lon;timestamp;temperature;humidity
78896;HTU21D;68284;59.124;37.910;2023-11-21T00:01:32;-6.04;68.10
78896;HTU21D;68284;59.124;37.910;2023-11-21T00:04:00;-6.06;68.13
78896;HTU21D;68284;59.124;37.910;2023-11-21T00:06:29;-6.06;68.17
78896;HTU21D;68284;59.124;37.910;2023-11-21T00:08:56;-6.07;68.13
78896;HTU21D;68284;59.124;37.910;2023-11-21T00:11:23;-6.08;68.11
78896;HTU21D;68284;59.124;37.910;2023-11-21T00:13:51;-6.05;68.14
78896;HTU21D;68284;59.124;37.910;2023-11-21T00:16:17;-6.02;68.04
78896;HTU21D;68284;59.124;37.910;2023-11-21T00:18:44;-5.98;68.09
78896;HTU21D;68284;59.124;37.910;2023-11-21T00:21:12;-5.93;67.91
78896;HTU21D;68284;59.124;37.910;2023-11-21T00:23:40;-5.93;67.70
78896;HTU21D;68284;59.124;37.910;2023-11-21T00:26:10;-5.94;67.62
78896;HTU21D;68284;59.124;37.910;2023-11-21T00:28:41;-5.99;67.59
78896;HTU21D;68284;59.124;37.910;2023-11-21T00:31:09;-6.00;67.68
78896;HTU21D;68284;59.124;37.910;2023-11-21T00:33:39;-6.03;67.49
78896;HTU21D;68284;59.124;37.910;2023-11-21T00:36:08;-6.11;67.51
78896;HTU21D;68284;59.124;37.910;2023-11-21T00:38:36;-6.13;67.59
78896;HTU21D;68284;59.124;37.910;2023-11-21T00:41:12;-6.20;67.53
78896;HTU21D;68284;59.124;37.910;2023-11-21T00:43:40;-6.27;67.64
78896;HTU21D;68284;59.124;37.910;2023-11-21T00:46:06;-6.32;67.78
78896;HTU21D;68284;59.124;37.910;2023-11-21T00:48:36;-6.33;67.81
78896;HTU21D;68284;59.124;37.910;2023-11-21T00:51:04;-6.38;67.75
78896;HTU21D;68284;59.124;37.910;2023-11-21T00:53:32;-6.44;67.78
78896;HTU21D;68284;59.124;37.910;2023-11-21T00:56:01;-6.49;67.88
78896;HTU21D;68284;59.124;37.910;2023-11-21T00:58:31;-6.55;67.78
78896;HTU21D;68284;59.124;37.910;2023-11-21T01:01:00;-6.60;67.84
78896;HTU21D;68284;59.124;37.910;2023-11-21T01:03:27;-6.64;67.93
78896;HTU21D;68284;59.124;37.910;2023-11-21T01:05:54;-6.65;68.02
78896;HTU21D;68284;59.124;37.910;2023-11-21T01:08:21;-6.63;68.07
78896;HTU21D;68284;59.124;37.910;2023-11-21T01:10:53;-6.62;67.93
78896;HTU21D;68284;59.124;37.910;2023-11-21T01:13:21;-6.65;67.62
78896;HTU21D;68284;59.124;37.910;2023-11-21T01:15:48;-6.63;68.52
78896;HTU21D;68284;59.124;37.910;2023-11-21T01:18:17;-6.51;68.07
78896;HTU21D;68284;59.124;37.910;2023-11-21T01:20:49;-6.52;67.87
78896;HTU21D;68284;59.124;37.910;2023-11-21T01:23:23;-6.57;67.55
78896;HTU21D;68284;59.124;37.910;2023-11-21T01:25:53;-6.63;67.52
78896;HTU21D;68284;59.124;37.910;2023-11-21T01:28:22;-6.72;67.38
78896;HTU21D;68284;59.124;37.910;2023-11-21T01:30:50;-6.80;67.56
78896;HTU21D;68284;59.124;37.910;2023-11-21T01:33:21;-6.88;67.53
78896;HTU21D;68284;59.124;37.910;2023-11-21T01:35:50;-6.95;67.47
78896;HTU21D;68284;59.124;37.910;2023-11-21T01:38:23;-7.01;67.58
78896;HTU21D;68284;59.124;37.910;2023-11-21T01:40:55;-7.02;67.71
78896;HTU21D;68284;59.124;37.910;2023-11-21T01:43:24;-7.03;67.60
78896;HTU21D;68284;59.124;37.910;2023-11-21T01:45:54;-7.04;67.64
78896;HTU21D;68284;59.124;37.910;2023-11-21T01:48:31;-7.05;67.55
78896;HTU21D;68284;59.124;37.910;2023-11-21T01:50:59;-7.04;67.59
78896;HTU21D;68284;59.124;37.910;2023-11-21T01:53:32;-7.03;67.44
78896;HTU21D;68284;59.124;37.910;2023-11-21T01:56:00;-7.05;67.27
78896;HTU21D;68284;59.124;37.910;2023-11-21T01:58:28;-7.07;67.19
78896;HTU21D;68284;59.124;37.910;2023-11-21T02:00:55;-7.09;67.35
78896;HTU21D;68284;59.124;37.910;2023-11-21T02:03:26;-7.07;67.24
78896;HTU21D;68284;59.124;37.910;2023-11-21T02:05:56;-7.09;67.21
78896;HTU21D;68284;59.124;37.910;2023-11-21T02:08:32;-7.09;67.32
78896;HTU21D;68284;59.124;37.910;2023-11-21T02:11:05;-7.06;67.28
78896;HTU21D;68284;59.124;37.910;2023-11-21T02:13:33;-7.05;67.18
78896;HTU21D;68284;59.124;37.910;2023-11-21T02:16:03;-7.02;67.04
78896;HTU21D;68284;59.124;37.910;2023-11-21T02:18:32;-7.02;66.84
78896;HTU21D;68284;59.124;37.910;2023-11-21T02:20:59;-7.03;66.86
78896;HTU21D;68284;59.124;37.910;2023-11-21T02:23:32;-7.01;66.85
78896;HTU21D;68284;59.124;37.910;2023-11-21T02:26:01;-6.98;66.85
78896;HTU21D;68284;59.124;37.910;2023-11-21T02:28:30;-6.93;66.75
78896;HTU21D;68284;59.124;37.910;2023-11-21T02:30:58;-6.92;66.62
78896;HTU21D;68284;59.124;37.910;2023-11-21T02:33:50;-6.94;66.52
78896;HTU21D;68284;59.124;37.910;2023-11-21T02:36:19;-6.95;66.62
78896;HTU21D;68284;59.124;37.910;2023-11-21T02:38:50;-6.95;66.75
78896;HTU21D;68284;59.124;37.910;2023-11-21T02:41:21;-6.92;66.87
78896;HTU21D;68284;59.124;37.910;2023-11-21T02:44:01;-6.88;66.89
78896;HTU21D;68284;59.124;37.910;2023-11-21T02:46:37;-6.83;66.72
78896;HTU21D;68284;59.124;37.910;2023-11-21T02:49:11;-6.82;66.78
78896;HTU21D;68284;59.124;37.910;2023-11-21T02:51:42;-6.87;66.75
78896;HTU21D;68284;59.124;37.910;2023-11-21T02:54:15;-6.88;67.43
78896;HTU21D;68284;59.124;37.910;2023-11-21T02:56:47;-6.81;67.33
78896;HTU21D;68284;59.124;37.910;2023-11-21T02:59:18;-6.78;67.14
78896;HTU21D;68284;59.124;37.910;2023-11-21T03:01:46;-6.80;67.28
78896;HTU21D;68284;59.124;37.910;2023-11-21T03:04:18;-6.80;67.31
78896;HTU21D;68284;59.124;37.910;2023-11-21T03:06:46;-6.80;67.33
78896;HTU21D;68284;59.124;37.910;2023-11-21T03:09:13;-6.80;67.24
78896;HTU21D;68284;59.124;37.910;2023-11-21T03:11:43;-6.83;67.27
78896;HTU21D;68284;59.124;37.910;2023-11-21T03:14:15;-6.88;67.39
78896;HTU21D;68284;59.124;37.910;2023-11-21T03:16:43;-6.91;67.48
78896;HTU21D;68284;59.124;37.910;2023-11-21T03:19:15;-6.92;67.60
78896;HTU21D;68284;59.124;37.910;2023-11-21T03:21:45;-6.91;67.68
78896;HTU21D;68284;59.124;37.910;2023-11-21T03:24:44;-6.91;67.77
78896;HTU21D;68284;59.124;37.910;2023-11-21T03:27:16;-6.91;67.73
78896;HTU21D;68284;59.124;37.910;2023-11-21T03:30:14;-6.94;67.71
78896;HTU21D;68284;59.124;37.910;2023-11-21T03:32:43;-6.94;67.72
78896;HTU21D;68284;59.124;37.910;2023-11-21T03:35:40;-6.97;67.80
78896;HTU21D;68284;59.124;37.910;2023-11-21T03:38:17;-6.98;67.75
78896;HTU21D;68284;59.124;37.910;2023-11-21T03:40:48;-7.00;67.78
78896;HTU21D;68284;59.124;37.910;2023-11-21T03:43:19;-7.03;67.85
78896;HTU21D;68284;59.124;37.910;2023-11-21T03:45:47;-7.04;67.96
78896;HTU21D;68284;59.124;37.910;2023-11-21T03:48:22;-7.05;67.98
78896;HTU21D;68284;59.124;37.910;2023-11-21T03:50:54;-7.04;68.08
78896;HTU21D;68284;59.124;37.910;2023-11-21T03:53:23;-7.01;68.06
78896;HTU21D;68284;59.124;37.910;2023-11-21T03:56:02;-7.01;68.09
78896;HTU21D;68284;59.124;37.910;2023-11-21T03:58:33;-6.97;68.11
78896;HTU21D;68284;59.124;37.910;2023-11-21T04:01:03;-6.94;68.06
78896;HTU21D;68284;59.124;37.910;2023-11-21T04:03:33;-6.90;68.13
78896;HTU21D;68284;59.124;37.910;2023-11-21T04:06:02;-6.89;68.19
78896;HTU21D;68284;59.124;37.910;2023-11-21T04:08:38;-6.90;68.20
78896;HTU21D;68284;59.124;37.910;2023-11-21T04:11:13;-6.89;68.22
78896;HTU21D;68284;59.124;37.910;2023-11-21T04:13:52;-6.89;68.23
78896;HTU21D;68284;59.124;37.910;2023-11-21T04:16:52;-6.88;68.25
78896;HTU21D;68284;59.124;37.910;2023-11-21T04:19:23;-6.87;68.30
78896;HTU21D;68284;59.124;37.910;2023-11-21T04:22:05;-6.83;68.34
78896;HTU21D;68284;59.124;37.910;2023-11-21T04:24:40;-6.82;68.36
78896;HTU21D;68284;59.124;37.910;2023-11-21T04:27:21;-6.82;68.39
78896;HTU21D;68284;59.124;37.910;2023-11-21T04:29:53;-6.78;68.43
78896;HTU21D;68284;59.124;37.910;2023-11-21T04:32:23;-6.78;68.42
78896;HTU21D;68284;59.124;37.910;2023-11-21T04:34:56;-6.79;68.48
78896;HTU21D;68284;59.124;37.910;2023-11-21T04:37:27;-6.78;68.54
78896;HTU21D;68284;59.124;37.910;2023-11-21T04:39:55;-6.77;68.49
78896;HTU21D;68284;59.124;37.910;2023-11-21T04:42:32;-6.78;68.54
78896;HTU21D;68284;59.124;37.910;2023-11-21T04:45:05;-6.81;68.65
78896;HTU21D;68284;59.124;37.910;2023-11-21T04:47:56;-6.82;68.65
78896;HTU21D;68284;59.124;37.910;2023-11-21T04:50:29;-6.81;68.75
78896;HTU21D;68284;59.124;37.910;2023-11-21T04:53:08;-6.79;68.60
78896;HTU21D;68284;59.124;37.910;2023-11-21T04:55:36;-6.81;68.67
78896;HTU21D;68284;59.124;37.910;2023-11-21T04:58:10;-6.78;68.75
78896;HTU21D;68284;59.124;37.910;2023-11-21T05:00:51;-6.81;68.75
78896;HTU21D;68284;59.124;37.910;2023-11-21T05:03:32;-6.82;68.77
78896;HTU21D;68284;59.124;37.910;2023-11-21T05:06:01;-6.83;68.79
78896;HTU21D;68284;59.124;37.910;2023-11-21T05:08:32;-6.85;68.74
78896;HTU21D;68284;59.124;37.910;2023-11-21T05:11:03;-6.85;68.78
78896;HTU21D;68284;59.124;37.910;2023-11-21T05:13:36;-6.81;68.84
78896;HTU21D;68284;59.124;37.910;2023-11-21T05:16:03;-6.74;69.80
78896;HTU21D;68284;59.124;37.910;2023-11-21T05:18:33;-6.48;70.32
78896;HTU21D;68284;59.124;37.910;2023-11-21T05:21:02;-6.35;69.36
78896;HTU21D;68284;59.124;37.910;2023-11-21T05:23:33;-6.35;69.05
78896;HTU21D;68284;59.124;37.910;2023-11-21T05:26:00;-6.35;68.90
78896;HTU21D;68284;59.124;37.910;2023-11-21T05:28:26;-6.26;69.51
78896;HTU21D;68284;59.124;37.910;2023-11-21T05:31:01;-6.12;69.38
78896;HTU21D;68284;59.124;37.910;2023-11-21T05:33:28;-6.07;68.99
78896;HTU21D;68284;59.124;37.910;2023-11-21T05:35:56;-6.06;68.87
78896;HTU21D;68284;59.124;37.910;2023-11-21T05:38:35;-6.05;68.84
78896;HTU21D;68284;59.124;37.910;2023-11-21T05:41:03;-6.03;68.73
78896;HTU21D;68284;59.124;37.910;2023-11-21T05:43:32;-6.02;68.71
78896;HTU21D;68284;59.124;37.910;2023-11-21T05:46:04;-6.01;68.59
78896;HTU21D;68284;59.124;37.910;2023-11-21T05:48:31;-6.04;68.42
78896;HTU21D;68284;59.124;37.910;2023-11-21T05:51:01;-6.08;68.55
78896;HTU21D;68284;59.124;37.910;2023-11-21T05:53:37;-6.08;68.54
78896;HTU21D;68284;59.124;37.910;2023-11-21T05:56:06;-6.09;68.49
78896;HTU21D;68284;59.124;37.910;2023-11-21T05:58:37;-6.13;68.57
78896;HTU21D;68284;59.124;37.910;2023-11-21T06:01:08;-6.11;68.65
78896;HTU21D;68284;59.124;37.910;2023-11-21T06:03:49;-6.07;68.67
78896;HTU21D;68284;59.124;37.910;2023-11-21T06:06:18;-6.02;68.73
78896;HTU21D;68284;59.124;37.910;2023-11-21T06:08:47;-5.98;68.63
78896;HTU21D;68284;59.124;37.910;2023-11-21T06:11:15;-5.94;68.48
78896;HTU21D;68284;59.124;37.910;2023-11-21T06:13:44;-5.93;68.40
78896;HTU21D;68284;59.124;37.910;2023-11-21T06:16:14;-5.93;68.46
78896;HTU21D;68284;59.124;37.910;2023-11-21T06:18:43;-5.90;68.42
78896;HTU21D;68284;59.124;37.910;2023-11-21T06:21:16;-5.89;68.52
78896;HTU21D;68284;59.124;37.910;2023-11-21T06:23:46;-5.85;68.58
78896;HTU21D;68284;59.124;37.910;2023-11-21T06:26:19;-5.78;68.54
78896;HTU21D;68284;59.124;37.910;2023-11-21T06:28:54;-5.75;68.48
78896;HTU21D;68284;59.124;37.910;2023-11-21T06:31:32;-5.71;68.34
78896;HTU21D;68284;59.124;37.910;2023-11-21T06:34:03;-5.69;68.44
78896;HTU21D;68284;59.124;37.910;2023-11-21T06:36:34;-5.68;68.47
78896;HTU21D;68284;59.124;37.910;2023-11-21T06:39:25;-5.63;68.50
78896;HTU21D;68284;59.124;37.910;2023-11-21T06:41:54;-5.58;68.47
78896;HTU21D;68284;59.124;37.910;2023-11-21T06:44:28;-5.55;68.47
78896;HTU21D;68284;59.124;37.910;2023-11-21T06:47:21;-5.52;68.47
78896;HTU21D;68284;59.124;37.910;2023-11-21T06:50:26;-5.50;68.37
78896;HTU21D;68284;59.124;37.910;2023-11-21T06:52:56;-5.52;68.39
78896;HTU21D;68284;59.124;37.910;2023-11-21T06:55:24;-5.55;68.52
78896;HTU21D;68284;59.124;37.910;2023-11-21T06:57:54;-5.53;68.51
78896;HTU21D;68284;59.124;37.910;2023-11-21T07:00:27;-5.53;68.59
78896;HTU21D;68284;59.124;37.910;2023-11-21T07:03:01;-5.50;68.65
78896;HTU21D;68284;59.124;37.910;2023-11-21T07:05:35;-5.49;68.66
78896;HTU21D;68284;59.124;37.910;2023-11-21T07:08:10;-5.48;68.55
78896;HTU21D;68284;59.124;37.910;2023-11-21T07:10:44;-5.48;68.53
78896;HTU21D;68284;59.124;37.910;2023-11-21T07:13:16;-5.49;68.40
78896;HTU21D;68284;59.124;37.910;2023-11-21T07:15:42;-5.55;68.50
78896;HTU21D;68284;59.124;37.910;2023-11-21T07:18:10;-5.54;68.62
78896;HTU21D;68284;59.124;37.910;2023-11-21T07:20:45;-5.48;68.67
78896;HTU21D;68284;59.124;37.910;2023-11-21T07:23:18;-5.44;68.71
78896;HTU21D;68284;59.124;37.910;2023-11-21T07:25:48;-5.38;68.59
78896;HTU21D;68284;59.124;37.910;2023-11-21T07:28:18;-5.33;68.51
78896;HTU21D;68284;59.124;37.910;2023-11-21T07:30:50;-5.28;68.37
78896;HTU21D;68284;59.124;37.910;2023-11-21T07:33:17;-5.30;68.30
78896;HTU21D;68284;59.124;37.910;2023-11-21T07:39:08;-5.32;68.23
78896;HTU21D;68284;59.124;37.910;2023-11-21T07:41:37;-5.31;68.32
78896;HTU21D;68284;59.124;37.910;2023-11-21T07:44:16;-5.31;68.19
78896;HTU21D;68284;59.124;37.910;2023-11-21T07:46:48;-5.33;68.17
78896;HTU21D;68284;59.124;37.910;2023-11-21T07:49:17;-5.32;68.20
78896;HTU21D;68284;59.124;37.910;2023-11-21T07:51:47;-5.31;68.27
78896;HTU21D;68284;59.124;37.910;2023-11-21T07:54:17;-5.27;68.28
78896;HTU21D;68284;59.124;37.910;2023-11-21T07:56:46;-5.22;68.24
78896;HTU21D;68284;59.124;37.910;2023-11-21T07:59:12;-5.18;68.04
78896;HTU21D;68284;59.124;37.910;2023-11-21T08:01:40;-5.17;68.00
78896;HTU21D;68284;59.124;37.910;2023-11-21T08:04:07;-5.15;68.07
78896;HTU21D;68284;59.124;37.910;2023-11-21T08:06:34;-5.17;67.84
78896;HTU21D;68284;59.124;37.910;2023-11-21T08:09:07;-5.22;67.96
78896;HTU21D;68284;59.124;37.910;2023-11-21T08:11:45;-5.19;68.08
78896;HTU21D;68284;59.124;37.910;2023-11-21T08:14:13;-5.20;68.04
78896;HTU21D;68284;59.124;37.910;2023-11-21T08:16:41;-5.24;67.93
78896;HTU21D;68284;59.124;37.910;2023-11-21T08:19:14;-5.33;67.89
78896;HTU21D;68284;59.124;37.910;2023-11-21T08:21:44;-5.42;67.71
78896;HTU21D;68284;59.124;37.910;2023-11-21T08:24:12;-5.46;67.68
78896;HTU21D;68284;59.124;37.910;2023-11-21T08:26:40;-5.54;67.76
78896;HTU21D;68284;59.124;37.910;2023-11-21T08:29:09;-5.60;67.66
78896;HTU21D;68284;59.124;37.910;2023-11-21T08:31:43;-5.67;67.65
78896;HTU21D;68284;59.124;37.910;2023-11-21T08:34:25;-5.73;67.52
78896;HTU21D;68284;59.124;37.910;2023-11-21T08:36:52;-5.79;67.62
78896;HTU21D;68284;59.124;37.910;2023-11-21T08:39:23;-5.85;67.66
78896;HTU21D;68284;59.124;37.910;2023-11-21T08:42:30;-5.87;67.47
78896;HTU21D;68284;59.124;37.910;2023-11-21T08:44:58;-5.91;67.04
78896;HTU21D;68284;59.124;37.910;2023-11-21T08:48:03;-6.03;66.58
78896;HTU21D;68284;59.124;37.910;2023-11-21T08:50:32;-6.11;66.96
78896;HTU21D;68284;59.124;37.910;2023-11-21T08:53:00;-6.14;66.91
78896;HTU21D;68284;59.124;37.910;2023-11-21T08:55:34;-6.13;67.01
78896;HTU21D;68284;59.124;37.910;2023-11-21T08:58:26;-6.12;66.01
78896;HTU21D;68284;59.124;37.910;2023-11-21T09:01:04;-6.21;65.91
78896;HTU21D;68284;59.124;37.910;2023-11-21T09:03:34;-6.26;66.52
78896;HTU21D;68284;59.124;37.910;2023-11-21T09:06:04;-6.21;66.65
78896;HTU21D;68284;59.124;37.910;2023-11-21T09:08:45;-6.15;66.43
78896;HTU21D;68284;59.124;37.910;2023-11-21T09:11:20;-6.13;65.78
78896;HTU21D;68284;59.124;37.910;2023-11-21T09:14:16;-6.16;65.07
78896;HTU21D;68284;59.124;37.910;2023-11-21T09:16:50;-6.24;64.79
78896;HTU21D;68284;59.124;37.910;2023-11-21T09:19:37;-6.36;65.07
78896;HTU21D;68284;59.124;37.910;2023-11-21T09:22:18;-6.42;64.78
78896;HTU21D;68284;59.124;37.910;2023-11-21T09:24:51;-6.51;64.94
78896;HTU21D;68284;59.124;37.910;2023-11-21T09:27:28;-6.61;64.53
78896;HTU21D;68284;59.124;37.910;2023-11-21T09:29:58;-6.71;65.08
78896;HTU21D;68284;59.124;37.910;2023-11-21T09:32:29;-6.71;65.24
78896;HTU21D;68284;59.124;37.910;2023-11-21T09:34:59;-6.71;65.22
78896;HTU21D;68284;59.124;37.910;2023-11-21T09:38:10;-6.68;65.15
78896;HTU21D;68284;59.124;37.910;2023-11-21T09:41:34;-6.66;64.96
78896;HTU21D;68284;59.124;37.910;2023-11-21T09:45:29;-6.65;64.85
78896;HTU21D;68284;59.124;37.910;2023-11-21T09:48:02;-6.71;64.89
78896;HTU21D;68284;59.124;37.910;2023-11-21T09:50:43;-6.70;65.23
78896;HTU21D;68284;59.124;37.910;2023-11-21T09:53:23;-6.61;65.31
78896;HTU21D;68284;59.124;37.910;2023-11-21T09:55:59;-6.49;65.33
78896;HTU21D;68284;59.124;37.910;2023-11-21T09:59:33;-6.35;65.24
78896;HTU21D;68284;59.124;37.910;2023-11-21T10:02:26;-6.26;64.96
78896;HTU21D;68284;59.124;37.910;2023-11-21T10:05:15;-6.19;64.91
78896;HTU21D;68284;59.124;37.910;2023-11-21T10:07:45;-6.13;64.79
78896;HTU21D;68284;59.124;37.910;2023-11-21T10:10:22;-6.17;64.17
78896;HTU21D;68284;59.124;37.910;2023-11-21T10:12:57;-6.27;64.22
78896;HTU21D;68284;59.124;37.910;2023-11-21T10:15:31;-6.35;64.34
78896;HTU21D;68284;59.124;37.910;2023-11-21T10:18:17;-6.39;64.50
78896;HTU21D;68284;59.124;37.910;2023-11-21T10:21:24;-6.35;64.58
78896;HTU21D;68284;59.124;37.910;2023-11-21T10:23:53;-6.33;64.49
78896;HTU21D;68284;59.124;37.910;2023-11-21T10:26:19;-6.34;64.37
78896;HTU21D;68284;59.124;37.910;2023-11-21T10:29:02;-6.39;64.43
78896;HTU21D;68284;59.124;37.910;2023-11-21T10:31:37;-6.42;64.27
78896;HTU21D;68284;59.124;37.910;2023-11-21T10:34:56;-6.50;64.29
78896;HTU21D;68284;59.124;37.910;2023-11-21T10:37:32;-6.56;64.29
78896;HTU21D;68284;59.124;37.910;2023-11-21T10:40:37;-6.60;64.40
78896;HTU21D;68284;59.124;37.910;2023-11-21T10:43:13;-6.59;64.52
78896;HTU21D;68284;59.124;37.910;2023-11-21T10:46:54;-6.60;64.21
78896;HTU21D;68284;59.124;37.910;2023-11-21T10:49:39;-6.63;64.27
78896;HTU21D;68284;59.124;37.910;2023-11-21T10:52:44;-6.67;64.27
78896;HTU21D;68284;59.124;37.910;2023-11-21T10:55:27;-6.74;64.05
78896;HTU21D;68284;59.124;37.910;2023-11-21T10:58:21;-6.79;64.37
78896;HTU21D;68284;59.124;37.910;2023-11-21T11:01:05;-6.68;64.44
78896;HTU21D;68284;59.124;37.910;2023-11-21T11:03:46;-6.58;64.35
78896;HTU21D;68284;59.124;37.910;2023-11-21T11:06:28;-6.34;64.72
78896;HTU21D;68284;59.124;37.910;2023-11-21T11:09:18;-5.87;64.46
78896;HTU21D;68284;59.124;37.910;2023-11-21T11:11:57;-5.53;63.53
78896;HTU21D;68284;59.124;37.910;2023-11-21T11:14:33;-5.43;63.09
78896;HTU21D;68284;59.124;37.910;2023-11-21T11:17:25;-5.50;63.01
78896;HTU21D;68284;59.124;37.910;2023-11-21T11:20:36;-5.60;63.50
78896;HTU21D;68284;59.124;37.910;2023-11-21T11:26:48;-5.76;63.50
78896;HTU21D;68284;59.124;37.910;2023-11-21T11:30:34;-5.86;63.78
78896;HTU21D;68284;59.124;37.910;2023-11-21T11:33:21;-5.97;63.87
78896;HTU21D;68284;59.124;37.910;2023-11-21T11:36:13;-6.05;64.02
78896;HTU21D;68284;59.124;37.910;2023-11-21T11:38:52;-6.13;64.10
78896;HTU21D;68284;59.124;37.910;2023-11-21T11:41:47;-6.22;64.12
78896;HTU21D;68284;59.124;37.910;2023-11-21T11:47:14;-6.36;64.64
78896;HTU21D;68284;59.124;37.910;2023-11-21T11:50:03;-6.43;64.66
78896;HTU21D;68284;59.124;37.910;2023-11-21T11:52:48;-6.50;64.74
78896;HTU21D;68284;59.124;37.910;2023-11-21T11:55:19;-6.59;65.07
78896;HTU21D;68284;59.124;37.910;2023-11-21T11:57:54;-6.62;65.22
78896;HTU21D;68284;59.124;37.910;2023-11-21T12:00:23;-6.64;65.30
78896;HTU21D;68284;59.124;37.910;2023-11-21T12:03:02;-6.66;65.31
78896;HTU21D;68284;59.124;37.910;2023-11-21T12:05:41;-6.73;65.36
78896;HTU21D;68284;59.124;37.910;2023-11-21T12:08:16;-6.77;65.56
78896;HTU21D;68284;59.124;37.910;2023-11-21T12:10:47;-6.82;65.73
78896;HTU21D;68284;59.124;37.910;2023-11-21T12:13:21;-6.87;65.91
78896;HTU21D;68284;59.124;37.910;2023-11-21T12:15:54;-6.91;65.98
78896;HTU21D;68284;59.124;37.910;2023-11-21T12:18:24;-6.93;66.11
78896;HTU21D;68284;59.124;37.910;2023-11-21T12:21:04;-6.88;66.11
78896;HTU21D;68284;59.124;37.910;2023-11-21T12:23:34;-6.83;66.16
78896;HTU21D;68284;59.124;37.910;2023-11-21T12:26:05;-6.77;66.17
78896;HTU21D;68284;59.124;37.910;2023-11-21T12:28:32;-6.74;66.17
78896;HTU21D;68284;59.124;37.910;2023-11-21T12:31:02;-6.72;66.17
78896;HTU21D;68284;59.124;37.910;2023-11-21T12:33:28;-6.68;66.26
78896;HTU21D;68284;59.124;37.910;2023-11-21T12:35:55;-6.64;66.32
78896;HTU21D;68284;59.124;37.910;2023-11-21T12:38:25;-6.62;66.40
78896;HTU21D;68284;59.124;37.910;2023-11-21T12:40:53;-6.59;66.40
78896;HTU21D;68284;59.124;37.910;2023-11-21T12:43:23;-6.58;66.44
78896;HTU21D;68284;59.124;37.910;2023-11-21T12:45:50;-6.58;66.95
78896;HTU21D;68284;59.124;37.910;2023-11-21T12:48:19;-6.51;67.44
78896;HTU21D;68284;59.124;37.910;2023-11-21T12:50:53;-6.48;67.19
78896;HTU21D;68284;59.124;37.910;2023-11-21T12:53:23;-6.50;67.03
78896;HTU21D;68284;59.124;37.910;2023-11-21T12:55:56;-6.55;67.01
78896;HTU21D;68284;59.124;37.910;2023-11-21T12:58:24;-6.58;67.01
78896;HTU21D;68284;59.124;37.910;2023-11-21T13:00:56;-6.63;67.16
78896;HTU21D;68284;59.124;37.910;2023-11-21T13:03:32;-6.66;67.19
78896;HTU21D;68284;59.124;37.910;2023-11-21T13:05:59;-6.70;67.23
78896;HTU21D;68284;59.124;37.910;2023-11-21T13:08:25;-6.73;67.30
78896;HTU21D;68284;59.124;37.910;2023-11-21T13:10:55;-6.72;67.40
78896;HTU21D;68284;59.124;37.910;2023-11-21T13:13:28;-6.73;67.43
78896;HTU21D;68284;59.124;37.910;2023-11-21T13:16:00;-6.70;67.48
78896;HTU21D;68284;59.124;37.910;2023-11-21T13:18:35;-6.68;67.59
78896;HTU21D;68284;59.124;37.910;2023-11-21T13:21:04;-6.68;67.61
78896;HTU21D;68284;59.124;37.910;2023-11-21T13:23:39;-6.65;67.67
78896;HTU21D;68284;59.124;37.910;2023-11-21T13:26:09;-6.66;67.66
78896;HTU21D;68284;59.124;37.910;2023-11-21T13:28:37;-6.64;67.73
78896;HTU21D;68284;59.124;37.910;2023-11-21T13:31:06;-6.64;67.75
78896;HTU21D;68284;59.124;37.910;2023-11-21T13:33:38;-6.63;67.86
78896;HTU21D;68284;59.124;37.910;2023-11-21T13:36:05;-6.62;67.88
78896;HTU21D;68284;59.124;37.910;2023-11-21T13:38:34;-6.59;67.98
78896;HTU21D;68284;59.124;37.910;2023-11-21T13:41:01;-6.59;67.98
78896;HTU21D;68284;59.124;37.910;2023-11-21T13:43:28;-6.58;68.03
78896;HTU21D;68284;59.124;37.910;2023-11-21T13:45:57;-6.57;68.02
78896;HTU21D;68284;59.124;37.910;2023-11-21T13:48:39;-6.56;68.11
78896;HTU21D;68284;59.124;37.910;2023-11-21T13:51:17;-6.56;68.07
78896;HTU21D;68284;59.124;37.910;2023-11-21T13:53:47;-6.57;68.23
78896;HTU21D;68284;59.124;37.910;2023-11-21T13:56:41;-6.59;68.73
78896;HTU21D;68284;59.124;37.910;2023-11-21T13:59:22;-6.44;69.17
78896;HTU21D;68284;59.124;37.910;2023-11-21T14:02:20;-6.29;69.29
78896;HTU21D;68284;59.124;37.910;2023-11-21T14:05:17;-6.27;68.61
78896;HTU21D;68284;59.124;37.910;2023-11-21T14:08:04;-6.31;68.37
78896;HTU21D;68284;59.124;37.910;2023-11-21T14:10:34;-6.37;68.42
78896;HTU21D;68284;59.124;37.910;2023-11-21T14:13:10;-6.41;68.49
78896;HTU21D;68284;59.124;37.910;2023-11-21T14:15:39;-6.46;68.53
78896;HTU21D;68284;59.124;37.910;2023-11-21T14:18:13;-6.49;68.65
78896;HTU21D;68284;59.124;37.910;2023-11-21T14:20:44;-6.50;68.67
78896;HTU21D;68284;59.124;37.910;2023-11-21T14:23:40;-6.50;68.84
78896;HTU21D;68284;59.124;37.910;2023-11-21T14:26:13;-6.52;68.71
78896;HTU21D;68284;59.124;37.910;2023-11-21T14:28:42;-6.56;68.78
78896;HTU21D;68284;59.124;37.910;2023-11-21T14:31:14;-6.56;68.84
78896;HTU21D;68284;59.124;37.910;2023-11-21T14:33:44;-6.55;69.07
78896;HTU21D;68284;59.124;37.910;2023-11-21T14:36:18;-6.55;69.07
78896;HTU21D;68284;59.124;37.910;2023-11-21T14:38:54;-6.51;69.03
78896;HTU21D;68284;59.124;37.910;2023-11-21T14:41:34;-6.48;69.08
78896;HTU21D;68284;59.124;37.910;2023-11-21T14:44:02;-6.44;69.13
78896;HTU21D;68284;59.124;37.910;2023-11-21T14:47:07;-6.42;69.21
78896;HTU21D;68284;59.124;37.910;2023-11-21T14:51:53;-6.36;68.96
78896;HTU21D;68284;59.124;37.910;2023-11-21T14:55:28;-6.30;68.98
78896;HTU21D;68284;59.124;37.910;2023-11-21T14:59:45;-6.26;68.84
78896;HTU21D;68284;59.124;37.910;2023-11-21T15:11:41;-6.21;69.07
78896;HTU21D;68284;59.124;37.910;2023-11-21T15:17:28;-6.13;69.14
78896;HTU21D;68284;59.124;37.910;2023-11-21T15:20:59;-6.13;69.20
78896;HTU21D;68284;59.124;37.910;2023-11-21T15:24:07;-6.09;69.40
78896;HTU21D;68284;59.124;37.910;2023-11-21T15:26:37;-6.07;69.41
78896;HTU21D;68284;59.124;37.910;2023-11-21T15:29:03;-6.06;69.51
78896;HTU21D;68284;59.124;37.910;2023-11-21T15:31:34;-6.03;69.58
78896;HTU21D;68284;59.124;37.910;2023-11-21T15:34:02;-6.00;69.68
78896;HTU21D;68284;59.124;37.910;2023-11-21T15:36:32;-5.97;69.77
78896;HTU21D;68284;59.124;37.910;2023-11-21T15:39:02;-5.96;69.86
78896;HTU21D;68284;59.124;37.910;2023-11-21T15:42:08;-5.93;69.76
78896;HTU21D;68284;59.124;37.910;2023-11-21T15:44:37;-5.94;69.78
78896;HTU21D;68284;59.124;37.910;2023-11-21T15:47:03;-5.90;69.82
78896;HTU21D;68284;59.124;37.910;2023-11-21T15:49:33;-5.85;69.84
78896;HTU21D;68284;59.124;37.910;2023-11-21T15:52:04;-5.82;69.69
78896;HTU21D;68284;59.124;37.910;2023-11-21T15:54:32;-5.79;69.71
78896;HTU21D;68284;59.124;37.910;2023-11-21T15:57:00;-5.74;69.77
78896;HTU21D;68284;59.124;37.910;2023-11-21T15:59:30;-5.74;69.74
78896;HTU21D;68284;59.124;37.910;2023-11-21T16:02:05;-5.72;69.78
78896;HTU21D;68284;59.124;37.910;2023-11-21T16:04:32;-5.72;69.94
78896;HTU21D;68284;59.124;37.910;2023-11-21T16:06:59;-5.74;69.97
78896;HTU21D;68284;59.124;37.910;2023-11-21T16:09:28;-5.73;70.06
78896;HTU21D;68284;59.124;37.910;2023-11-21T16:12:04;-5.75;70.07
78896;HTU21D;68284;59.124;37.910;2023-11-21T16:14:35;-5.74;70.10
78896;HTU21D;68284;59.124;37.910;2023-11-21T16:17:08;-5.76;70.08
78896;HTU21D;68284;59.124;37.910;2023-11-21T16:19:38;-5.76;70.18